sensor_id;sensor_type;location;lat;lon;timestamp;temperature;humidity
73277;DHT22;61501;43.316;5.372;2022-10-16T00:00:36;20.20;97.00
73277;DHT22;61501;43.316;5.372;2022-10-16T00:03:04;20.20;97.10
73277;DHT22;61501;43.316;5.372;2022-10-16T00:05:30;20.20;97.50
73277;DHT22;61501;43.316;5.372;2022-10-16T00:07:56;20.20;97.70
73277;DHT22;61501;43.316;5.372;2022-10-16T00:10:22;20.30;97.90
73277;DHT22;61501;43.316;5.372;2022-10-16T00:12:48;20.30;98.00
73277;DHT22;61501;43.316;5.372;2022-10-16T00:15:14;20.30;98.50
73277;DHT22;61501;43.316;5.372;2022-10-16T00:17:39;20.30;98.00
73277;DHT22;61501;43.316;5.372;2022-10-16T00:20:05;20.20;98.10
73277;DHT22;61501;43.316;5.372;2022-10-16T00:22:32;20.20;98.10
73277;DHT22;61501;43.316;5.372;2022-10-16T00:24:57;20.20;98.10
73277;DHT22;61501;43.316;5.372;2022-10-16T00:27:23;20.20;98.40
73277;DHT22;61501;43.316;5.372;2022-10-16T00:29:52;20.20;98.60
73277;DHT22;61501;43.316;5.372;2022-10-16T00:32:19;20.20;98.50
73277;DHT22;61501;43.316;5.372;2022-10-16T00:34:45;20.20;98.70
73277;DHT22;61501;43.316;5.372;2022-10-16T00:37:11;20.30;98.80
73277;DHT22;61501;43.316;5.372;2022-10-16T00:39:37;20.30;99.00
73277;DHT22;61501;43.316;5.372;2022-10-16T00:42:03;20.30;99.10
73277;DHT22;61501;43.316;5.372;2022-10-16T00:44:54;20.30;99.40
73277;DHT22;61501;43.316;5.372;2022-10-16T00:47:31;20.40;99.80
73277;DHT22;61501;43.316;5.372;2022-10-16T00:50:21;20.40;99.90
73277;DHT22;61501;43.316;5.372;2022-10-16T00:52:50;20.50;99.90
73277;DHT22;61501;43.316;5.372;2022-10-16T00:55:17;20.50;99.90
73277;DHT22;61501;43.316;5.372;2022-10-16T00:57:43;20.50;99.90
73277;DHT22;61501;43.316;5.372;2022-10-16T01:00:14;20.50;99.90
73277;DHT22;61501;43.316;5.372;2022-10-16T01:02:41;20.50;99.90
73277;DHT22;61501;43.316;5.372;2022-10-16T01:05:07;20.50;99.90
73277;DHT22;61501;43.316;5.372;2022-10-16T01:08:25;20.50;99.90
73277;DHT22;61501;43.316;5.372;2022-10-16T01:10:57;20.50;99.90
73277;DHT22;61501;43.316;5.372;2022-10-16T01:13:33;20.50;99.90
73277;DHT22;61501;43.316;5.372;2022-10-16T01:21:36;20.40;99.90
73277;DHT22;61501;43.316;5.372;2022-10-16T01:27:04;20.50;99.90
73277;DHT22;61501;43.316;5.372;2022-10-16T01:29:46;20.50;99.90
73277;DHT22;61501;43.316;5.372;2022-10-16T01:35:24;20.50;99.80
73277;DHT22;61501;43.316;5.372;2022-10-16T01:38:04;20.40;99.80
73277;DHT22;61501;43.316;5.372;2022-10-16T01:40:34;20.40;99.80
73277;DHT22;61501;43.316;5.372;2022-10-16T01:43:22;20.40;99.80
73277;DHT22;61501;43.316;5.372;2022-10-16T01:45:50;20.40;99.80
73277;DHT22;61501;43.316;5.372;2022-10-16T01:48:18;20.40;99.90
73277;DHT22;61501;43.316;5.372;2022-10-16T01:50:52;20.40;99.90
73277;DHT22;61501;43.316;5.372;2022-10-16T01:53:19;20.40;99.90
73277;DHT22;61501;43.316;5.372;2022-10-16T01:55:47;20.40;99.70
73277;DHT22;61501;43.316;5.372;2022-10-16T01:58:15;20.40;99.70
73277;DHT22;61501;43.316;5.372;2022-10-16T02:00:44;20.40;99.20
73277;DHT22;61501;43.316;5.372;2022-10-16T02:03:12;20.30;99.30
73277;DHT22;61501;43.316;5.372;2022-10-16T02:05:47;20.30;99.40
73277;DHT22;61501;43.316;5.372;2022-10-16T02:08:14;20.40;99.40
73277;DHT22;61501;43.316;5.372;2022-10-16T02:10:40;20.40;99.40
73277;DHT22;61501;43.316;5.372;2022-10-16T02:13:06;20.40;99.60
73277;DHT22;61501;43.316;5.372;2022-10-16T02:15:34;20.40;99.70
73277;DHT22;61501;43.316;5.372;2022-10-16T02:18:02;20.30;99.90
73277;DHT22;61501;43.316;5.372;2022-10-16T02:20:34;20.30;99.80
73277;DHT22;61501;43.316;5.372;2022-10-16T02:23:01;20.30;99.90
73277;DHT22;61501;43.316;5.372;2022-10-16T02:25:35;20.30;99.90
73277;DHT22;61501;43.316;5.372;2022-10-16T02:28:08;20.30;99.90
73277;DHT22;61501;43.316;5.372;2022-10-16T02:30:54;20.30;99.90
73277;DHT22;61501;43.316;5.372;2022-10-16T02:33:23;20.30;99.90
73277;DHT22;61501;43.316;5.372;2022-10-16T02:35:50;20.30;99.90
73277;DHT22;61501;43.316;5.372;2022-10-16T02:38:17;20.30;99.90
73277;DHT22;61501;43.316;5.372;2022-10-16T02:40:44;20.30;99.90
73277;DHT22;61501;43.316;5.372;2022-10-16T02:43:10;20.30;99.90
73277;DHT22;61501;43.316;5.372;2022-10-16T02:45:36;20.30;99.90
73277;DHT22;61501;43.316;5.372;2022-10-16T02:48:02;20.30;99.90
73277;DHT22;61501;43.316;5.372;2022-10-16T02:50:28;20.30;99.90
73277;DHT22;61501;43.316;5.372;2022-10-16T02:52:54;20.30;99.90
73277;DHT22;61501;43.316;5.372;2022-10-16T02:55:19;20.30;99.90
73277;DHT22;61501;43.316;5.372;2022-10-16T02:57:45;20.30;99.80
73277;DHT22;61501;43.316;5.372;2022-10-16T03:00:13;20.30;99.50
73277;DHT22;61501;43.316;5.372;2022-10-16T03:02:39;20.20;99.10
73277;DHT22;61501;43.316;5.372;2022-10-16T03:05:05;20.20;98.70
73277;DHT22;61501;43.316;5.372;2022-10-16T03:07:31;20.20;98.60
73277;DHT22;61501;43.316;5.372;2022-10-16T03:09:57;20.10;98.40
73277;DHT22;61501;43.316;5.372;2022-10-16T03:12:28;20.10;98.30
73277;DHT22;61501;43.316;5.372;2022-10-16T03:14:54;20.10;98.00
73277;DHT22;61501;43.316;5.372;2022-10-16T03:17:20;20.10;98.00
73277;DHT22;61501;43.316;5.372;2022-10-16T03:19:46;20.00;98.00
73277;DHT22;61501;43.316;5.372;2022-10-16T03:22:11;20.00;98.00
73277;DHT22;61501;43.316;5.372;2022-10-16T03:24:37;20.10;97.80
73277;DHT22;61501;43.316;5.372;2022-10-16T03:27:02;20.00;97.80
73277;DHT22;61501;43.316;5.372;2022-10-16T03:29:28;20.00;97.90
73277;DHT22;61501;43.316;5.372;2022-10-16T03:31:55;20.10;98.00
73277;DHT22;61501;43.316;5.372;2022-10-16T03:34:21;20.00;98.20
73277;DHT22;61501;43.316;5.372;2022-10-16T03:36:47;20.00;98.10
73277;DHT22;61501;43.316;5.372;2022-10-16T03:39:12;20.00;98.60
73277;DHT22;61501;43.316;5.372;2022-10-16T03:41:38;19.90;98.30
73277;DHT22;61501;43.316;5.372;2022-10-16T03:44:04;19.90;98.50
73277;DHT22;61501;43.316;5.372;2022-10-16T03:46:29;19.90;98.40
73277;DHT22;61501;43.316;5.372;2022-10-16T03:48:55;19.90;98.50
73277;DHT22;61501;43.316;5.372;2022-10-16T03:51:20;19.90;98.70
73277;DHT22;61501;43.316;5.372;2022-10-16T03:53:46;19.90;98.70
73277;DHT22;61501;43.316;5.372;2022-10-16T03:56:12;19.90;98.70
73277;DHT22;61501;43.316;5.372;2022-10-16T03:58:37;19.90;98.70
73277;DHT22;61501;43.316;5.372;2022-10-16T04:01:03;19.90;98.80
73277;DHT22;61501;43.316;5.372;2022-10-16T04:03:29;19.90;98.70
73277;DHT22;61501;43.316;5.372;2022-10-16T04:05:55;19.90;98.70
73277;DHT22;61501;43.316;5.372;2022-10-16T04:08:21;19.90;98.70
73277;DHT22;61501;43.316;5.372;2022-10-16T04:10:46;19.90;98.60
73277;DHT22;61501;43.316;5.372;2022-10-16T04:13:12;19.90;98.60
73277;DHT22;61501;43.316;5.372;2022-10-16T04:15:38;19.90;98.50
73277;DHT22;61501;43.316;5.372;2022-10-16T04:18:04;19.90;98.60
73277;DHT22;61501;43.316;5.372;2022-10-16T04:20:31;19.90;98.60
73277;DHT22;61501;43.316;5.372;2022-10-16T04:22:56;19.90;98.60
73277;DHT22;61501;43.316;5.372;2022-10-16T04:25:22;19.90;98.60
73277;DHT22;61501;43.316;5.372;2022-10-16T04:27:48;19.90;98.50
73277;DHT22;61501;43.316;5.372;2022-10-16T04:30:13;19.90;98.40
73277;DHT22;61501;43.316;5.372;2022-10-16T04:32:39;19.80;98.60
73277;DHT22;61501;43.316;5.372;2022-10-16T04:35:06;19.80;98.70
73277;DHT22;61501;43.316;5.372;2022-10-16T04:37:31;19.80;98.80
73277;DHT22;61501;43.316;5.372;2022-10-16T04:39:57;19.80;98.80
73277;DHT22;61501;43.316;5.372;2022-10-16T04:42:23;19.80;98.80
73277;DHT22;61501;43.316;5.372;2022-10-16T04:44:48;19.80;98.70
73277;DHT22;61501;43.316;5.372;2022-10-16T04:47:14;19.80;98.80
73277;DHT22;61501;43.316;5.372;2022-10-16T04:49:40;19.80;98.80
73277;DHT22;61501;43.316;5.372;2022-10-16T04:52:05;19.80;98.80
73277;DHT22;61501;43.316;5.372;2022-10-16T04:54:31;19.80;98.70
73277;DHT22;61501;43.316;5.372;2022-10-16T04:56:57;19.80;98.90
73277;DHT22;61501;43.316;5.372;2022-10-16T04:59:23;19.90;99.10
73277;DHT22;61501;43.316;5.372;2022-10-16T05:01:49;19.80;99.10
73277;DHT22;61501;43.316;5.372;2022-10-16T05:04:15;19.90;99.10
73277;DHT22;61501;43.316;5.372;2022-10-16T05:06:41;19.90;99.10
73277;DHT22;61501;43.316;5.372;2022-10-16T05:09:08;19.90;99.20
73277;DHT22;61501;43.316;5.372;2022-10-16T05:11:33;20.00;99.20
73277;DHT22;61501;43.316;5.372;2022-10-16T05:13:59;20.00;99.10
73277;DHT22;61501;43.316;5.372;2022-10-16T05:16:26;20.00;99.10
73277;DHT22;61501;43.316;5.372;2022-10-16T05:18:52;20.00;98.90
73277;DHT22;61501;43.316;5.372;2022-10-16T05:21:18;20.00;98.90
73277;DHT22;61501;43.316;5.372;2022-10-16T05:23:44;20.00;98.80
73277;DHT22;61501;43.316;5.372;2022-10-16T05:26:10;20.00;98.80
73277;DHT22;61501;43.316;5.372;2022-10-16T05:28:35;20.00;98.80
73277;DHT22;61501;43.316;5.372;2022-10-16T05:31:08;20.10;98.60
73277;DHT22;61501;43.316;5.372;2022-10-16T05:33:35;20.10;98.60
73277;DHT22;61501;43.316;5.372;2022-10-16T05:36:05;20.00;98.50
73277;DHT22;61501;43.316;5.372;2022-10-16T05:38:31;20.00;98.60
73277;DHT22;61501;43.316;5.372;2022-10-16T05:40:57;19.90;98.60
73277;DHT22;61501;43.316;5.372;2022-10-16T05:43:23;19.90;98.60
73277;DHT22;61501;43.316;5.372;2022-10-16T05:46:01;19.90;98.50
73277;DHT22;61501;43.316;5.372;2022-10-16T05:48:27;19.90;98.60
73277;DHT22;61501;43.316;5.372;2022-10-16T05:50:57;20.00;98.50
73277;DHT22;61501;43.316;5.372;2022-10-16T05:53:23;19.90;98.50
73277;DHT22;61501;43.316;5.372;2022-10-16T05:55:57;19.90;98.40
73277;DHT22;61501;43.316;5.372;2022-10-16T05:58:23;19.90;98.20
73277;DHT22;61501;43.316;5.372;2022-10-16T06:00:53;19.90;98.10
73277;DHT22;61501;43.316;5.372;2022-10-16T06:03:19;19.90;98.20
73277;DHT22;61501;43.316;5.372;2022-10-16T06:05:45;19.90;98.20
73277;DHT22;61501;43.316;5.372;2022-10-16T06:08:10;19.80;98.10
73277;DHT22;61501;43.316;5.372;2022-10-16T06:10:36;19.90;98.00
73277;DHT22;61501;43.316;5.372;2022-10-16T06:13:01;19.90;97.90
73277;DHT22;61501;43.316;5.372;2022-10-16T06:15:27;19.90;97.90
73277;DHT22;61501;43.316;5.372;2022-10-16T06:17:52;19.90;97.80
73277;DHT22;61501;43.316;5.372;2022-10-16T06:20:18;19.90;97.60
73277;DHT22;61501;43.316;5.372;2022-10-16T06:22:44;20.00;97.50
73277;DHT22;61501;43.316;5.372;2022-10-16T06:25:09;20.00;97.50
73277;DHT22;61501;43.316;5.372;2022-10-16T06:27:35;20.00;97.50
73277;DHT22;61501;43.316;5.372;2022-10-16T06:30:01;20.00;97.60
73277;DHT22;61501;43.316;5.372;2022-10-16T06:32:27;20.10;97.40
73277;DHT22;61501;43.316;5.372;2022-10-16T06:34:53;20.20;97.40
73277;DHT22;61501;43.316;5.372;2022-10-16T06:37:18;20.30;97.10
73277;DHT22;61501;43.316;5.372;2022-10-16T06:39:44;20.30;97.00
73277;DHT22;61501;43.316;5.372;2022-10-16T06:42:09;20.30;96.80
73277;DHT22;61501;43.316;5.372;2022-10-16T06:44:35;20.40;96.80
73277;DHT22;61501;43.316;5.372;2022-10-16T06:47:00;20.40;96.70
73277;DHT22;61501;43.316;5.372;2022-10-16T06:49:26;20.50;96.70
73277;DHT22;61501;43.316;5.372;2022-10-16T06:51:53;20.60;96.60
73277;DHT22;61501;43.316;5.372;2022-10-16T06:54:19;20.70;96.10
73277;DHT22;61501;43.316;5.372;2022-10-16T06:56:45;20.70;96.20
73277;DHT22;61501;43.316;5.372;2022-10-16T06:59:10;20.60;96.10
73277;DHT22;61501;43.316;5.372;2022-10-16T07:01:36;20.70;96.00
73277;DHT22;61501;43.316;5.372;2022-10-16T07:04:02;20.70;96.00
73277;DHT22;61501;43.316;5.372;2022-10-16T07:06:31;20.80;96.00
73277;DHT22;61501;43.316;5.372;2022-10-16T07:08:58;20.80;96.00
73277;DHT22;61501;43.316;5.372;2022-10-16T07:11:25;20.80;96.20
73277;DHT22;61501;43.316;5.372;2022-10-16T07:13:51;20.80;96.10
73277;DHT22;61501;43.316;5.372;2022-10-16T07:16:19;20.90;96.10
73277;DHT22;61501;43.316;5.372;2022-10-16T07:18:46;21.00;96.00
73277;DHT22;61501;43.316;5.372;2022-10-16T07:21:16;21.00;96.00
73277;DHT22;61501;43.316;5.372;2022-10-16T07:23:42;21.00;96.10
73277;DHT22;61501;43.316;5.372;2022-10-16T07:26:09;21.00;96.20
73277;DHT22;61501;43.316;5.372;2022-10-16T07:28:35;21.00;96.10
73277;DHT22;61501;43.316;5.372;2022-10-16T07:31:05;21.10;95.90
73277;DHT22;61501;43.316;5.372;2022-10-16T07:33:33;21.20;96.00
73277;DHT22;61501;43.316;5.372;2022-10-16T07:35:59;21.20;95.70
73277;DHT22;61501;43.316;5.372;2022-10-16T07:38:25;21.30;95.70
73277;DHT22;61501;43.316;5.372;2022-10-16T07:41:02;21.30;96.10
73277;DHT22;61501;43.316;5.372;2022-10-16T07:43:31;21.30;95.80
73277;DHT22;61501;43.316;5.372;2022-10-16T07:45:57;21.30;95.80
73277;DHT22;61501;43.316;5.372;2022-10-16T07:48:23;21.40;95.80
73277;DHT22;61501;43.316;5.372;2022-10-16T07:50:50;21.30;95.80
73277;DHT22;61501;43.316;5.372;2022-10-16T07:53:15;21.40;95.60
73277;DHT22;61501;43.316;5.372;2022-10-16T07:55:42;21.50;95.50
73277;DHT22;61501;43.316;5.372;2022-10-16T07:58:07;21.50;95.80
73277;DHT22;61501;43.316;5.372;2022-10-16T08:00:33;21.60;95.50
73277;DHT22;61501;43.316;5.372;2022-10-16T08:02:59;21.70;95.30
73277;DHT22;61501;43.316;5.372;2022-10-16T08:05:30;21.80;95.00
73277;DHT22;61501;43.316;5.372;2022-10-16T08:07:56;21.90;94.90
73277;DHT22;61501;43.316;5.372;2022-10-16T08:10:23;21.90;94.90
73277;DHT22;61501;43.316;5.372;2022-10-16T08:12:50;22.00;94.90
73277;DHT22;61501;43.316;5.372;2022-10-16T08:15:16;22.10;94.60
73277;DHT22;61501;43.316;5.372;2022-10-16T08:17:41;22.20;94.40
73277;DHT22;61501;43.316;5.372;2022-10-16T08:20:08;22.20;94.50
73277;DHT22;61501;43.316;5.372;2022-10-16T08:22:34;22.20;94.70
73277;DHT22;61501;43.316;5.372;2022-10-16T08:24:59;22.30;94.60
73277;DHT22;61501;43.316;5.372;2022-10-16T08:27:25;22.20;94.80
73277;DHT22;61501;43.316;5.372;2022-10-16T08:29:51;22.20;94.80
73277;DHT22;61501;43.316;5.372;2022-10-16T08:32:16;22.40;94.30
73277;DHT22;61501;43.316;5.372;2022-10-16T08:34:42;22.50;94.10
73277;DHT22;61501;43.316;5.372;2022-10-16T08:37:08;22.70;93.70
73277;DHT22;61501;43.316;5.372;2022-10-16T08:39:36;22.90;93.20
73277;DHT22;61501;43.316;5.372;2022-10-16T08:45:15;23.30;92.50
73277;DHT22;61501;43.316;5.372;2022-10-16T08:47:47;23.40;92.20
73277;DHT22;61501;43.316;5.372;2022-10-16T08:50:20;23.60;91.80
73277;DHT22;61501;43.316;5.372;2022-10-16T08:52:46;23.70;91.40
73277;DHT22;61501;43.316;5.372;2022-10-16T08:57:54;23.60;91.20
73277;DHT22;61501;43.316;5.372;2022-10-16T09:00:20;23.70;91.00
73277;DHT22;61501;43.316;5.372;2022-10-16T09:02:53;23.80;91.00
73277;DHT22;61501;43.316;5.372;2022-10-16T09:05:37;23.70;90.70
73277;DHT22;61501;43.316;5.372;2022-10-16T09:13:23;23.80;91.00
73277;DHT22;61501;43.316;5.372;2022-10-16T09:16:19;23.80;90.70
73277;DHT22;61501;43.316;5.372;2022-10-16T09:23:43;24.20;89.00
73277;DHT22;61501;43.316;5.372;2022-10-16T09:26:13;24.00;89.50
73277;DHT22;61501;43.316;5.372;2022-10-16T09:28:40;23.90;90.00
73277;DHT22;61501;43.316;5.372;2022-10-16T09:31:07;23.90;90.00
73277;DHT22;61501;43.316;5.372;2022-10-16T09:33:37;23.90;90.10
73277;DHT22;61501;43.316;5.372;2022-10-16T09:36:05;24.20;89.70
73277;DHT22;61501;43.316;5.372;2022-10-16T09:38:33;24.30;88.70
73277;DHT22;61501;43.316;5.372;2022-10-16T09:41:00;24.40;88.30
73277;DHT22;61501;43.316;5.372;2022-10-16T09:46:00;24.50;88.00
73277;DHT22;61501;43.316;5.372;2022-10-16T09:48:57;24.50;87.40
73277;DHT22;61501;43.316;5.372;2022-10-16T09:53:59;24.30;88.00
73277;DHT22;61501;43.316;5.372;2022-10-16T09:56:31;24.40;87.40
73277;DHT22;61501;43.316;5.372;2022-10-16T09:59:14;24.40;87.40
73277;DHT22;61501;43.316;5.372;2022-10-16T10:01:44;24.30;88.10
73277;DHT22;61501;43.316;5.372;2022-10-16T10:04:11;24.30;87.70
73277;DHT22;61501;43.316;5.372;2022-10-16T10:06:43;24.30;87.50
73277;DHT22;61501;43.316;5.372;2022-10-16T10:09:23;24.30;87.20
73277;DHT22;61501;43.316;5.372;2022-10-16T10:11:57;24.30;87.20
73277;DHT22;61501;43.316;5.372;2022-10-16T10:22:42;24.60;85.20
73277;DHT22;61501;43.316;5.372;2022-10-16T10:33:28;24.50;84.50
73277;DHT22;61501;43.316;5.372;2022-10-16T10:36:40;24.30;85.80
73277;DHT22;61501;43.316;5.372;2022-10-16T10:38:58;24.20;86.80
73277;DHT22;61501;43.316;5.372;2022-10-16T10:42:15;24.10;87.70
73277;DHT22;61501;43.316;5.372;2022-10-16T10:44:43;24.10;87.90
73277;DHT22;61501;43.316;5.372;2022-10-16T10:47:27;24.20;87.30
73277;DHT22;61501;43.316;5.372;2022-10-16T10:53:11;24.60;85.90
73277;DHT22;61501;43.316;5.372;2022-10-16T11:01:17;24.60;86.50
73277;DHT22;61501;43.316;5.372;2022-10-16T11:06:44;24.80;84.90
73277;DHT22;61501;43.316;5.372;2022-10-16T11:12:21;24.90;83.80
73277;DHT22;61501;43.316;5.372;2022-10-16T11:17:40;24.70;82.30
73277;DHT22;61501;43.316;5.372;2022-10-16T11:20:26;24.70;82.70
73277;DHT22;61501;43.316;5.372;2022-10-16T11:22:55;24.80;82.10
73277;DHT22;61501;43.316;5.372;2022-10-16T11:25:25;24.90;81.90
73277;DHT22;61501;43.316;5.372;2022-10-16T11:28:05;24.80;82.10
73277;DHT22;61501;43.316;5.372;2022-10-16T11:30:55;25.00;80.80
73277;DHT22;61501;43.316;5.372;2022-10-16T11:33:30;25.10;80.90
73277;DHT22;61501;43.316;5.372;2022-10-16T11:38:48;25.90;76.30
73277;DHT22;61501;43.316;5.372;2022-10-16T11:41:45;26.80;73.00
73277;DHT22;61501;43.316;5.372;2022-10-16T11:49:40;30.60;59.00
73277;DHT22;61501;43.316;5.372;2022-10-16T11:52:20;31.60;55.40
73277;DHT22;61501;43.316;5.372;2022-10-16T11:54:53;32.60;54.10
73277;DHT22;61501;43.316;5.372;2022-10-16T11:57:40;33.70;51.40
73277;DHT22;61501;43.316;5.372;2022-10-16T12:00:33;34.20;48.00
73277;DHT22;61501;43.316;5.372;2022-10-16T12:03:35;33.40;50.70
73277;DHT22;61501;43.316;5.372;2022-10-16T12:08:49;34.30;47.40
73277;DHT22;61501;43.316;5.372;2022-10-16T12:11:33;33.90;49.70
73277;DHT22;61501;43.316;5.372;2022-10-16T12:19:20;34.90;46.90
73277;DHT22;61501;43.316;5.372;2022-10-16T12:21:46;35.80;46.40
73277;DHT22;61501;43.316;5.372;2022-10-16T12:24:31;35.80;45.10
73277;DHT22;61501;43.316;5.372;2022-10-16T12:26:57;34.30;46.20
73277;DHT22;61501;43.316;5.372;2022-10-16T12:29:34;31.90;52.00
73277;DHT22;61501;43.316;5.372;2022-10-16T12:32:00;30.40;55.70
73277;DHT22;61501;43.316;5.372;2022-10-16T12:34:39;29.40;59.40
73277;DHT22;61501;43.316;5.372;2022-10-16T12:39:45;28.90;61.80
73277;DHT22;61501;43.316;5.372;2022-10-16T12:44:53;30.50;57.10
73277;DHT22;61501;43.316;5.372;2022-10-16T12:49:58;32.00;53.70
73277;DHT22;61501;43.316;5.372;2022-10-16T12:52:39;32.00;52.20
73277;DHT22;61501;43.316;5.372;2022-10-16T12:55:15;31.10;55.10
73277;DHT22;61501;43.316;5.372;2022-10-16T13:00:36;30.80;55.80
73277;DHT22;61501;43.316;5.372;2022-10-16T13:17:05;30.50;55.70
73277;DHT22;61501;43.316;5.372;2022-10-16T13:24:46;29.10;60.80
73277;DHT22;61501;43.316;5.372;2022-10-16T13:27:25;27.90;63.90
73277;DHT22;61501;43.316;5.372;2022-10-16T13:29:54;28.30;63.00
73277;DHT22;61501;43.316;5.372;2022-10-16T13:32:26;28.80;62.10
73277;DHT22;61501;43.316;5.372;2022-10-16T13:34:52;28.60;62.30
73277;DHT22;61501;43.316;5.372;2022-10-16T13:37:22;28.10;64.00
73277;DHT22;61501;43.316;5.372;2022-10-16T13:39:48;27.80;66.20
73277;DHT22;61501;43.316;5.372;2022-10-16T13:44:53;27.50;67.00
73277;DHT22;61501;43.316;5.372;2022-10-16T13:47:21;28.70;63.80
73277;DHT22;61501;43.316;5.372;2022-10-16T13:50:31;29.60;60.30
73277;DHT22;61501;43.316;5.372;2022-10-16T13:52:50;28.90;61.70
73277;DHT22;61501;43.316;5.372;2022-10-16T13:55:18;28.50;61.90
73277;DHT22;61501;43.316;5.372;2022-10-16T13:57:44;27.50;65.40
73277;DHT22;61501;43.316;5.372;2022-10-16T14:00:22;27.00;67.20
73277;DHT22;61501;43.316;5.372;2022-10-16T14:02:58;28.20;63.50
73277;DHT22;61501;43.316;5.372;2022-10-16T14:05:26;28.90;60.30
73277;DHT22;61501;43.316;5.372;2022-10-16T14:07:52;29.70;57.20
73277;DHT22;61501;43.316;5.372;2022-10-16T14:10:26;30.20;55.00
73277;DHT22;61501;43.316;5.372;2022-10-16T14:13:01;30.50;53.70
73277;DHT22;61501;43.316;5.372;2022-10-16T14:15:29;30.10;54.30
73277;DHT22;61501;43.316;5.372;2022-10-16T14:17:55;31.10;53.10
73277;DHT22;61501;43.316;5.372;2022-10-16T14:20:25;31.60;50.40
73277;DHT22;61501;43.316;5.372;2022-10-16T14:22:59;31.90;49.50
73277;DHT22;61501;43.316;5.372;2022-10-16T14:25:28;32.40;48.40
73277;DHT22;61501;43.316;5.372;2022-10-16T14:30:35;32.20;48.10
73277;DHT22;61501;43.316;5.372;2022-10-16T14:33:05;31.60;48.40
73277;DHT22;61501;43.316;5.372;2022-10-16T14:37:58;31.80;49.40
73277;DHT22;61501;43.316;5.372;2022-10-16T14:40:32;32.90;47.20
73277;DHT22;61501;43.316;5.372;2022-10-16T14:42:59;33.50;45.50
73277;DHT22;61501;43.316;5.372;2022-10-16T14:45:31;33.60;44.40
73277;DHT22;61501;43.316;5.372;2022-10-16T14:48:01;32.90;46.30
73277;DHT22;61501;43.316;5.372;2022-10-16T14:50:28;32.10;47.80
73277;DHT22;61501;43.316;5.372;2022-10-16T14:52:54;31.70;49.40
73277;DHT22;61501;43.316;5.372;2022-10-16T14:55:20;31.70;48.30
73277;DHT22;61501;43.316;5.372;2022-10-16T14:57:46;32.00;47.50
73277;DHT22;61501;43.316;5.372;2022-10-16T15:02:43;30.60;52.00
73277;DHT22;61501;43.316;5.372;2022-10-16T15:05:26;30.20;53.70
73277;DHT22;61501;43.316;5.372;2022-10-16T15:07:53;30.50;54.00
73277;DHT22;61501;43.316;5.372;2022-10-16T15:10:24;31.30;54.00
73277;DHT22;61501;43.316;5.372;2022-10-16T15:12:50;31.30;53.70
73277;DHT22;61501;43.316;5.372;2022-10-16T15:15:36;31.80;52.40
73277;DHT22;61501;43.316;5.372;2022-10-16T15:18:03;32.70;48.90
73277;DHT22;61501;43.316;5.372;2022-10-16T15:20:34;33.10;48.30
73277;DHT22;61501;43.316;5.372;2022-10-16T15:23:05;32.70;48.10
73277;DHT22;61501;43.316;5.372;2022-10-16T15:25:37;33.70;46.50
73277;DHT22;61501;43.316;5.372;2022-10-16T15:28:05;33.90;45.30
73277;DHT22;61501;43.316;5.372;2022-10-16T15:30:32;32.50;48.50
73277;DHT22;61501;43.316;5.372;2022-10-16T15:32:58;33.30;46.70
73277;DHT22;61501;43.316;5.372;2022-10-16T15:35:24;33.10;47.80
73277;DHT22;61501;43.316;5.372;2022-10-16T15:37:49;33.60;46.40
73277;DHT22;61501;43.316;5.372;2022-10-16T15:40:17;33.10;46.50
73277;DHT22;61501;43.316;5.372;2022-10-16T15:42:42;33.90;45.70
73277;DHT22;61501;43.316;5.372;2022-10-16T15:45:09;34.30;44.40
73277;DHT22;61501;43.316;5.372;2022-10-16T15:47:36;33.90;44.40
73277;DHT22;61501;43.316;5.372;2022-10-16T15:50:01;33.90;45.00
73277;DHT22;61501;43.316;5.372;2022-10-16T15:52:27;33.20;46.20
73277;DHT22;61501;43.316;5.372;2022-10-16T15:54:54;31.40;49.20
73277;DHT22;61501;43.316;5.372;2022-10-16T15:57:20;29.20;56.30
73277;DHT22;61501;43.316;5.372;2022-10-16T15:59:45;28.10;59.40
73277;DHT22;61501;43.316;5.372;2022-10-16T16:02:11;27.40;61.80
73277;DHT22;61501;43.316;5.372;2022-10-16T16:04:37;26.80;63.90
73277;DHT22;61501;43.316;5.372;2022-10-16T16:07:02;26.50;66.10
73277;DHT22;61501;43.316;5.372;2022-10-16T16:09:31;26.30;67.20
73277;DHT22;61501;43.316;5.372;2022-10-16T16:11:56;26.10;69.10
73277;DHT22;61501;43.316;5.372;2022-10-16T16:14:25;26.00;69.60
73277;DHT22;61501;43.316;5.372;2022-10-16T16:16:54;25.90;70.90
73277;DHT22;61501;43.316;5.372;2022-10-16T16:19:19;25.60;72.40
73277;DHT22;61501;43.316;5.372;2022-10-16T16:21:46;25.40;74.20
73277;DHT22;61501;43.316;5.372;2022-10-16T16:24:12;25.20;75.50
73277;DHT22;61501;43.316;5.372;2022-10-16T16:26:38;25.20;77.10
73277;DHT22;61501;43.316;5.372;2022-10-16T16:29:11;25.00;78.00
73277;DHT22;61501;43.316;5.372;2022-10-16T16:31:38;25.00;78.40
73277;DHT22;61501;43.316;5.372;2022-10-16T16:34:03;25.20;77.70
73277;DHT22;61501;43.316;5.372;2022-10-16T16:36:29;25.30;77.50
73277;DHT22;61501;43.316;5.372;2022-10-16T16:38:55;25.20;78.00
73277;DHT22;61501;43.316;5.372;2022-10-16T16:41:24;25.00;78.70
73277;DHT22;61501;43.316;5.372;2022-10-16T16:43:51;24.80;79.70
73277;DHT22;61501;43.316;5.372;2022-10-16T16:46:18;24.70;80.10
73277;DHT22;61501;43.316;5.372;2022-10-16T16:48:44;24.50;81.10
73277;DHT22;61501;43.316;5.372;2022-10-16T16:51:15;24.30;82.40
73277;DHT22;61501;43.316;5.372;2022-10-16T16:53:46;24.20;83.10
73277;DHT22;61501;43.316;5.372;2022-10-16T16:56:12;24.20;83.70
73277;DHT22;61501;43.316;5.372;2022-10-16T16:58:38;24.20;83.20
73277;DHT22;61501;43.316;5.372;2022-10-16T17:01:04;24.20;84.40
73277;DHT22;61501;43.316;5.372;2022-10-16T17:03:31;24.10;85.10
73277;DHT22;61501;43.316;5.372;2022-10-16T17:05:59;23.90;87.30
73277;DHT22;61501;43.316;5.372;2022-10-16T17:08:25;23.90;87.20
73277;DHT22;61501;43.316;5.372;2022-10-16T17:10:51;23.80;89.10
73277;DHT22;61501;43.316;5.372;2022-10-16T17:13:24;23.70;90.30
73277;DHT22;61501;43.316;5.372;2022-10-16T17:15:51;23.60;91.00
73277;DHT22;61501;43.316;5.372;2022-10-16T17:18:18;23.60;91.40
73277;DHT22;61501;43.316;5.372;2022-10-16T17:20:44;23.50;91.80
73277;DHT22;61501;43.316;5.372;2022-10-16T17:23:10;23.50;92.00
73277;DHT22;61501;43.316;5.372;2022-10-16T17:25:37;23.50;92.20
73277;DHT22;61501;43.316;5.372;2022-10-16T17:28:03;23.40;92.40
73277;DHT22;61501;43.316;5.372;2022-10-16T17:30:28;23.40;92.70
73277;DHT22;61501;43.316;5.372;2022-10-16T17:32:54;23.40;92.50
73277;DHT22;61501;43.316;5.372;2022-10-16T17:35:20;23.40;92.50
73277;DHT22;61501;43.316;5.372;2022-10-16T17:37:46;23.40;92.40
73277;DHT22;61501;43.316;5.372;2022-10-16T17:40:12;23.40;92.40
73277;DHT22;61501;43.316;5.372;2022-10-16T17:42:37;23.40;92.60
73277;DHT22;61501;43.316;5.372;2022-10-16T17:45:03;23.30;92.40